This is the latest recevied weather packets stored in our database for station/object SP2NBH-2. If no packets are shown the sender has not sent any weather packets the latest 10 day(s).
| Time | Temp. | Humidity | Pressure | Rain* | Wind** | Luminosity | Snow |
|---|---|---|---|---|---|---|---|
| 1777733292 | 27.22° C | 24% | 1019.2 hPa | - | - | - | - |
| 1777733229 | 27.22° C | 24% | 1019.2 hPa | - | - | - | - |
| 1777731500 | 31.67° C | 18% | 1019.3 hPa | - | - | - | - |
| 1777731440 | 31.67° C | 18% | 1019.3 hPa | - | - | - | - |
| 1777730540 | 30.56° C | 20% | 1019.6 hPa | - | - | - | - |
| 1777729640 | 28.33° C | 23% | 1019.7 hPa | - | - | - | - |
| 1777728739 | 26.67° C | 25% | 1019.8 hPa | - | - | - | - |
| 1777727893 | 26.11° C | 26% | 1020.2 hPa | - | - | - | - |
| 1777727839 | 26.11° C | 26% | 1020.2 hPa | - | - | - | - |
| 1777724276 | 30° C | 20% | 1021 hPa | - | - | - | - |
| 1777724239 | 30° C | 20% | 1021 hPa | - | - | - | - |
| 1777722440 | 32.22° C | 17% | 1021.4 hPa | - | - | - | - |
| 1777721529 | 32.78° C | 16% | 1021.5 hPa | - | - | - | - |
| 1777720629 | 30.56° C | 16% | 1022 hPa | - | - | - | - |
| 1777719729 | 30.56° C | 17% | 1022.2 hPa | - | - | - | - |
| 1777718829 | 29.44° C | 19% | 1022.3 hPa | - | - | - | - |
| 1777717928 | 28.89° C | 18% | 1022.5 hPa | - | - | - | - |
| 1777717028 | 30° C | 18% | 1022.7 hPa | - | - | - | - |
| 1777716128 | 30° C | 18% | 1023 hPa | - | - | - | - |
| 1777715228 | 29.44° C | 18% | 1023.2 hPa | - | - | - | - |
| 1777714327 | 28.33° C | 20% | 1023.4 hPa | - | - | - | - |
| 1777713427 | 27.78° C | 21% | 1023.4 hPa | - | - | - | - |
| 1777712528 | 27.78° C | 19% | 1023.6 hPa | - | - | - | - |
| 1777711627 | 28.89° C | 20% | 1023.7 hPa | - | - | - | - |
| 1777710726 | 27.78° C | 21% | 1023.9 hPa | - | - | - | - |
* Rain since midnight (hover to see other rain measurements)
** Current wind speed in m/s (hover to see current wind gust speed)